sensor_id;sensor_type;location;lat;lon;timestamp;temperature;humidity
72762;SHT30;60886;55.034;73.150;2023-02-01T00:01:26;-18.81;72.84
72762;SHT30;60886;55.034;73.150;2023-02-01T00:04:38;-18.79;73.24
72762;SHT30;60886;55.034;73.150;2023-02-01T00:07:39;-18.79;73.30
72762;SHT30;60886;55.034;73.150;2023-02-01T00:11:01;-18.75;73.57
72762;SHT30;60886;55.034;73.150;2023-02-01T00:14:12;-18.67;73.07
72762;SHT30;60886;55.034;73.150;2023-02-01T00:17:14;-18.69;72.42
72762;SHT30;60886;55.034;73.150;2023-02-01T00:20:25;-18.73;72.46
72762;SHT30;60886;55.034;73.150;2023-02-01T00:23:41;-18.73;72.89
72762;SHT30;60886;55.034;73.150;2023-02-01T00:26:44;-18.72;72.64
72762;SHT30;60886;55.034;73.150;2023-02-01T00:29:46;-18.77;72.29
72762;SHT30;60886;55.034;73.150;2023-02-01T00:32:47;-18.87;72.30
72762;SHT30;60886;55.034;73.150;2023-02-01T00:35:49;-18.87;72.44
72762;SHT30;60886;55.034;73.150;2023-02-01T00:38:51;-18.86;72.61
72762;SHT30;60886;55.034;73.150;2023-02-01T00:41:52;-18.93;72.41
72762;SHT30;60886;55.034;73.150;2023-02-01T00:44:53;-18.98;72.52
72762;SHT30;60886;55.034;73.150;2023-02-01T00:47:55;-19.03;72.42
72762;SHT30;60886;55.034;73.150;2023-02-01T00:51:00;-19.03;72.67
72762;SHT30;60886;55.034;73.150;2023-02-01T00:54:09;-19.04;72.90
72762;SHT30;60886;55.034;73.150;2023-02-01T00:57:11;-19.00;72.63
72762;SHT30;60886;55.034;73.150;2023-02-01T01:00:23;-19.07;72.52
72762;SHT30;60886;55.034;73.150;2023-02-01T01:07:45;-18.90;73.03
72762;SHT30;60886;55.034;73.150;2023-02-01T01:10:47;-18.84;72.78
72762;SHT30;60886;55.034;73.150;2023-02-01T01:14:02;-18.79;72.39
72762;SHT30;60886;55.034;73.150;2023-02-01T01:17:04;-18.77;72.35
72762;SHT30;60886;55.034;73.150;2023-02-01T01:20:05;-18.75;72.36
72762;SHT30;60886;55.034;73.150;2023-02-01T01:23:08;-18.75;72.16
72762;SHT30;60886;55.034;73.150;2023-02-01T01:26:23;-18.80;71.70
72762;SHT30;60886;55.034;73.150;2023-02-01T01:29:24;-18.80;72.00
72762;SHT30;60886;55.034;73.150;2023-02-01T01:32:37;-18.81;71.82
72762;SHT30;60886;55.034;73.150;2023-02-01T01:35:38;-18.72;72.09
72762;SHT30;60886;55.034;73.150;2023-02-01T01:38:50;-18.83;71.59
72762;SHT30;60886;55.034;73.150;2023-02-01T01:42:02;-18.80;72.18
72762;SHT30;60886;55.034;73.150;2023-02-01T01:45:33;-18.72;71.98
72762;SHT30;60886;55.034;73.150;2023-02-01T01:48:41;-18.70;71.67
72762;SHT30;60886;55.034;73.150;2023-02-01T01:51:54;-18.59;72.25
72762;SHT30;60886;55.034;73.150;2023-02-01T01:54:57;-18.55;71.82
72762;SHT30;60886;55.034;73.150;2023-02-01T01:58:04;-18.60;71.86
72762;SHT30;60886;55.034;73.150;2023-02-01T02:01:11;-18.55;71.92
72762;SHT30;60886;55.034;73.150;2023-02-01T02:04:13;-18.57;71.70
72762;SHT30;60886;55.034;73.150;2023-02-01T02:07:31;-18.51;72.18
72762;SHT30;60886;55.034;73.150;2023-02-01T02:10:36;-18.53;71.73
72762;SHT30;60886;55.034;73.150;2023-02-01T02:14:09;-18.43;72.68
72762;SHT30;60886;55.034;73.150;2023-02-01T02:28:19;-18.60;72.10
72762;SHT30;60886;55.034;73.150;2023-02-01T02:35:52;-18.80;72.58
72762;SHT30;60886;55.034;73.150;2023-02-01T02:39:26;-18.90;72.66
72762;SHT30;60886;55.034;73.150;2023-02-01T02:43:17;-18.90;72.88
72762;SHT30;60886;55.034;73.150;2023-02-01T02:46:46;-18.97;72.57
72762;SHT30;60886;55.034;73.150;2023-02-01T02:50:17;-19.10;72.78
72762;SHT30;60886;55.034;73.150;2023-02-01T02:57:32;-19.12;72.64
72762;SHT30;60886;55.034;73.150;2023-02-01T03:00:54;-19.18;72.80
72762;SHT30;60886;55.034;73.150;2023-02-01T03:04:17;-19.17;72.58
72762;SHT30;60886;55.034;73.150;2023-02-01T03:11:06;-19.12;72.59
72762;SHT30;60886;55.034;73.150;2023-02-01T03:14:10;-19.11;72.84
72762;SHT30;60886;55.034;73.150;2023-02-01T03:17:17;-19.10;72.99
72762;SHT30;60886;55.034;73.150;2023-02-01T03:20:23;-19.03;72.90
72762;SHT30;60886;55.034;73.150;2023-02-01T03:23:41;-19.03;72.88
72762;SHT30;60886;55.034;73.150;2023-02-01T03:26:48;-18.94;72.79
72762;SHT30;60886;55.034;73.150;2023-02-01T03:30:09;-18.81;72.88
72762;SHT30;60886;55.034;73.150;2023-02-01T03:33:16;-18.75;72.61
72762;SHT30;60886;55.034;73.150;2023-02-01T03:36:35;-18.72;72.23
72762;SHT30;60886;55.034;73.150;2023-02-01T03:39:52;-18.66;72.36
72762;SHT30;60886;55.034;73.150;2023-02-01T03:42:56;-18.65;72.32
72762;SHT30;60886;55.034;73.150;2023-02-01T03:46:04;-18.63;72.13
72762;SHT30;60886;55.034;73.150;2023-02-01T03:49:26;-18.56;72.48
72762;SHT30;60886;55.034;73.150;2023-02-01T03:52:53;-18.52;72.17
72762;SHT30;60886;55.034;73.150;2023-02-01T03:56:06;-18.46;72.16
72762;SHT30;60886;55.034;73.150;2023-02-01T03:59:19;-18.32;72.02
72762;SHT30;60886;55.034;73.150;2023-02-01T04:02:21;-18.33;72.02
72762;SHT30;60886;55.034;73.150;2023-02-01T04:05:33;-18.28;72.10
72762;SHT30;60886;55.034;73.150;2023-02-01T04:08:43;-18.26;71.90
72762;SHT30;60886;55.034;73.150;2023-02-01T04:11:45;-18.20;71.91
72762;SHT30;60886;55.034;73.150;2023-02-01T04:14:47;-18.08;71.79
72762;SHT30;60886;55.034;73.150;2023-02-01T04:17:53;-18.02;71.35
72762;SHT30;60886;55.034;73.150;2023-02-01T04:21:04;-17.88;71.44
72762;SHT30;60886;55.034;73.150;2023-02-01T04:24:06;-17.78;71.08
72762;SHT30;60886;55.034;73.150;2023-02-01T04:27:08;-17.73;70.88
72762;SHT30;60886;55.034;73.150;2023-02-01T04:30:11;-17.59;71.06
72762;SHT30;60886;55.034;73.150;2023-02-01T04:33:13;-17.55;70.57
72762;SHT30;60886;55.034;73.150;2023-02-01T04:36:15;-17.59;70.57
72762;SHT30;60886;55.034;73.150;2023-02-01T04:39:18;-17.52;70.84
72762;SHT30;60886;55.034;73.150;2023-02-01T04:42:20;-17.40;70.83
72762;SHT30;60886;55.034;73.150;2023-02-01T04:45:26;-17.49;70.28
72762;SHT30;60886;55.034;73.150;2023-02-01T04:48:29;-17.45;70.42
72762;SHT30;60886;55.034;73.150;2023-02-01T04:51:30;-17.35;70.36
72762;SHT30;60886;55.034;73.150;2023-02-01T04:54:41;-17.28;70.18
72762;SHT30;60886;55.034;73.150;2023-02-01T04:57:43;-17.28;69.88
72762;SHT30;60886;55.034;73.150;2023-02-01T05:00:51;-17.36;70.25
72762;SHT30;60886;55.034;73.150;2023-02-01T05:03:53;-17.35;70.30
72762;SHT30;60886;55.034;73.150;2023-02-01T05:07:06;-17.36;70.59
72762;SHT30;60886;55.034;73.150;2023-02-01T05:10:09;-17.26;70.68
72762;SHT30;60886;55.034;73.150;2023-02-01T05:13:11;-17.15;70.31
72762;SHT30;60886;55.034;73.150;2023-02-01T05:16:32;-17.07;70.15
72762;SHT30;60886;55.034;73.150;2023-02-01T05:19:45;-16.95;70.24
72762;SHT30;60886;55.034;73.150;2023-02-01T05:22:48;-16.78;70.11
72762;SHT30;60886;55.034;73.150;2023-02-01T05:26:01;-16.67;69.74
72762;SHT30;60886;55.034;73.150;2023-02-01T05:29:05;-16.56;69.50
72762;SHT30;60886;55.034;73.150;2023-02-01T05:32:09;-16.44;69.59
72762;SHT30;60886;55.034;73.150;2023-02-01T05:35:11;-16.40;69.47
72762;SHT30;60886;55.034;73.150;2023-02-01T05:38:12;-16.46;69.38
72762;SHT30;60886;55.034;73.150;2023-02-01T05:41:14;-16.50;69.70
72762;SHT30;60886;55.034;73.150;2023-02-01T05:44:25;-16.50;70.68
72762;SHT30;60886;55.034;73.150;2023-02-01T05:47:27;-16.36;71.09
72762;SHT30;60886;55.034;73.150;2023-02-01T05:50:28;-16.33;71.37
72762;SHT30;60886;55.034;73.150;2023-02-01T05:53:42;-16.12;71.60
72762;SHT30;60886;55.034;73.150;2023-02-01T05:56:44;-15.98;71.08
72762;SHT30;60886;55.034;73.150;2023-02-01T05:59:46;-15.91;71.17
72762;SHT30;60886;55.034;73.150;2023-02-01T06:02:52;-15.74;71.68
72762;SHT30;60886;55.034;73.150;2023-02-01T06:05:55;-15.65;71.32
72762;SHT30;60886;55.034;73.150;2023-02-01T06:09:03;-15.58;71.13
72762;SHT30;60886;55.034;73.150;2023-02-01T06:12:13;-15.64;71.27
72762;SHT30;60886;55.034;73.150;2023-02-01T06:15:15;-15.58;71.17
72762;SHT30;60886;55.034;73.150;2023-02-01T06:18:16;-15.68;71.41
72762;SHT30;60886;55.034;73.150;2023-02-01T06:21:19;-15.64;71.88
72762;SHT30;60886;55.034;73.150;2023-02-01T06:24:30;-15.58;72.13
72762;SHT30;60886;55.034;73.150;2023-02-01T06:27:34;-15.58;72.10
72762;SHT30;60886;55.034;73.150;2023-02-01T06:30:44;-15.40;72.14
72762;SHT30;60886;55.034;73.150;2023-02-01T06:33:47;-15.17;71.74
72762;SHT30;60886;55.034;73.150;2023-02-01T06:36:50;-15.13;71.15
72762;SHT30;60886;55.034;73.150;2023-02-01T06:39:54;-15.06;71.34
72762;SHT30;60886;55.034;73.150;2023-02-01T06:42:56;-14.96;71.08
72762;SHT30;60886;55.034;73.150;2023-02-01T06:46:04;-15.03;71.17
72762;SHT30;60886;55.034;73.150;2023-02-01T06:49:17;-14.93;71.51
72762;SHT30;60886;55.034;73.150;2023-02-01T06:52:19;-14.83;71.66
72762;SHT30;60886;55.034;73.150;2023-02-01T06:55:21;-14.72;71.54
72762;SHT30;60886;55.034;73.150;2023-02-01T06:58:31;-14.78;71.37
72762;SHT30;60886;55.034;73.150;2023-02-01T07:01:39;-14.62;71.56
72762;SHT30;60886;55.034;73.150;2023-02-01T07:04:41;-14.64;71.94
72762;SHT30;60886;55.034;73.150;2023-02-01T07:07:44;-14.45;71.87
72762;SHT30;60886;55.034;73.150;2023-02-01T07:10:47;-14.44;71.30
72762;SHT30;60886;55.034;73.150;2023-02-01T07:13:49;-14.41;71.65
72762;SHT30;60886;55.034;73.150;2023-02-01T07:16:50;-14.41;71.74
72762;SHT30;60886;55.034;73.150;2023-02-01T07:19:52;-14.42;71.64
72762;SHT30;60886;55.034;73.150;2023-02-01T07:22:57;-14.42;71.96
72762;SHT30;60886;55.034;73.150;2023-02-01T07:26:00;-14.41;71.68
72762;SHT30;60886;55.034;73.150;2023-02-01T07:29:03;-14.38;71.72
72762;SHT30;60886;55.034;73.150;2023-02-01T07:32:15;-14.33;71.83
72762;SHT30;60886;55.034;73.150;2023-02-01T07:35:20;-14.24;71.49
72762;SHT30;60886;55.034;73.150;2023-02-01T07:38:21;-14.23;71.42
72762;SHT30;60886;55.034;73.150;2023-02-01T07:41:40;-14.05;71.46
72762;SHT30;60886;55.034;73.150;2023-02-01T07:44:52;-14.03;71.22
72762;SHT30;60886;55.034;73.150;2023-02-01T07:47:54;-13.97;71.46
72762;SHT30;60886;55.034;73.150;2023-02-01T07:50:59;-13.94;71.22
72762;SHT30;60886;55.034;73.150;2023-02-01T07:54:00;-13.96;71.25
72762;SHT30;60886;55.034;73.150;2023-02-01T07:57:05;-13.86;71.24
72762;SHT30;60886;55.034;73.150;2023-02-01T08:00:09;-13.67;71.17
72762;SHT30;60886;55.034;73.150;2023-02-01T08:03:40;-13.69;70.62
72762;SHT30;60886;55.034;73.150;2023-02-01T08:06:43;-13.69;70.35
72762;SHT30;60886;55.034;73.150;2023-02-01T08:09:44;-13.66;70.60
72762;SHT30;60886;55.034;73.150;2023-02-01T08:12:46;-13.67;70.43
72762;SHT30;60886;55.034;73.150;2023-02-01T08:16:00;-13.62;70.45
72762;SHT30;60886;55.034;73.150;2023-02-01T08:19:03;-13.66;70.63
72762;SHT30;60886;55.034;73.150;2023-02-01T08:22:09;-13.56;70.29
72762;SHT30;60886;55.034;73.150;2023-02-01T08:25:11;-13.58;70.32
72762;SHT30;60886;55.034;73.150;2023-02-01T08:28:14;-13.55;70.58
72762;SHT30;60886;55.034;73.150;2023-02-01T08:31:17;-13.39;70.26
72762;SHT30;60886;55.034;73.150;2023-02-01T08:34:30;-13.36;69.97
72762;SHT30;60886;55.034;73.150;2023-02-01T08:37:36;-13.35;69.72
72762;SHT30;60886;55.034;73.150;2023-02-01T08:40:44;-13.35;69.84
72762;SHT30;60886;55.034;73.150;2023-02-01T08:43:53;-13.17;70.26
72762;SHT30;60886;55.034;73.150;2023-02-01T08:46:56;-13.08;69.45
72762;SHT30;60886;55.034;73.150;2023-02-01T08:49:59;-13.06;69.05
72762;SHT30;60886;55.034;73.150;2023-02-01T08:53:14;-13.06;69.42
72762;SHT30;60886;55.034;73.150;2023-02-01T08:56:19;-13.01;69.35
72762;SHT30;60886;55.034;73.150;2023-02-01T08:59:32;-12.99;69.40
72762;SHT30;60886;55.034;73.150;2023-02-01T09:02:34;-12.99;69.69
72762;SHT30;60886;55.034;73.150;2023-02-01T09:05:45;-12.94;69.61
72762;SHT30;60886;55.034;73.150;2023-02-01T09:08:54;-12.94;69.87
72762;SHT30;60886;55.034;73.150;2023-02-01T09:12:11;-12.91;70.12
72762;SHT30;60886;55.034;73.150;2023-02-01T09:15:16;-12.80;69.84
72762;SHT30;60886;55.034;73.150;2023-02-01T09:18:46;-12.83;69.69
72762;SHT30;60886;55.034;73.150;2023-02-01T09:22:01;-12.80;70.02
72762;SHT30;60886;55.034;73.150;2023-02-01T09:25:03;-12.75;69.85
72762;SHT30;60886;55.034;73.150;2023-02-01T09:28:11;-12.76;69.73
72762;SHT30;60886;55.034;73.150;2023-02-01T09:31:23;-12.76;70.20
72762;SHT30;60886;55.034;73.150;2023-02-01T09:34:36;-12.73;69.88
72762;SHT30;60886;55.034;73.150;2023-02-01T09:37:37;-12.76;70.04
72762;SHT30;60886;55.034;73.150;2023-02-01T09:40:42;-12.72;70.04
72762;SHT30;60886;55.034;73.150;2023-02-01T09:44:13;-12.69;70.16
72762;SHT30;60886;55.034;73.150;2023-02-01T09:47:22;-12.62;70.36
72762;SHT30;60886;55.034;73.150;2023-02-01T09:50:47;-12.60;70.22
72762;SHT30;60886;55.034;73.150;2023-02-01T09:54:02;-12.62;70.00
72762;SHT30;60886;55.034;73.150;2023-02-01T09:57:08;-12.59;70.38
72762;SHT30;60886;55.034;73.150;2023-02-01T10:00:20;-12.57;70.39
72762;SHT30;60886;55.034;73.150;2023-02-01T10:03:40;-12.53;70.55
72762;SHT30;60886;55.034;73.150;2023-02-01T10:10:30;-12.50;70.32
72762;SHT30;60886;55.034;73.150;2023-02-01T10:17:14;-12.52;70.37
72762;SHT30;60886;55.034;73.150;2023-02-01T10:24:10;-12.63;70.51
72762;SHT30;60886;55.034;73.150;2023-02-01T10:27:23;-12.62;70.49
72762;SHT30;60886;55.034;73.150;2023-02-01T10:30:33;-12.67;70.32
72762;SHT30;60886;55.034;73.150;2023-02-01T10:33:47;-12.77;70.66
72762;SHT30;60886;55.034;73.150;2023-02-01T10:37:31;-12.86;70.81
72762;SHT30;60886;55.034;73.150;2023-02-01T10:40:41;-12.89;71.00
72762;SHT30;60886;55.034;73.150;2023-02-01T10:43:54;-12.89;71.22
72762;SHT30;60886;55.034;73.150;2023-02-01T10:56:10;-12.94;71.21
72762;SHT30;60886;55.034;73.150;2023-02-01T10:59:17;-13.01;71.37
72762;SHT30;60886;55.034;73.150;2023-02-01T11:02:29;-13.10;71.57
72762;SHT30;60886;55.034;73.150;2023-02-01T11:05:46;-13.11;71.92
72762;SHT30;60886;55.034;73.150;2023-02-01T11:12:41;-13.18;72.24
72762;SHT30;60886;55.034;73.150;2023-02-01T11:15:46;-13.15;72.30
72762;SHT30;60886;55.034;73.150;2023-02-01T11:18:53;-13.17;72.38
72762;SHT30;60886;55.034;73.150;2023-02-01T11:22:06;-13.25;72.64
72762;SHT30;60886;55.034;73.150;2023-02-01T11:25:09;-13.25;72.97
72762;SHT30;60886;55.034;73.150;2023-02-01T11:28:14;-13.27;73.15
72762;SHT30;60886;55.034;73.150;2023-02-01T11:31:18;-13.27;73.35
72762;SHT30;60886;55.034;73.150;2023-02-01T11:34:36;-13.28;73.30
72762;SHT30;60886;55.034;73.150;2023-02-01T11:37:57;-13.25;73.26
72762;SHT30;60886;55.034;73.150;2023-02-01T11:41:24;-13.32;73.20
72762;SHT30;60886;55.034;73.150;2023-02-01T11:44:40;-13.38;73.28
72762;SHT30;60886;55.034;73.150;2023-02-01T11:47:57;-13.39;73.29
72762;SHT30;60886;55.034;73.150;2023-02-01T11:54:52;-13.51;73.54
72762;SHT30;60886;55.034;73.150;2023-02-01T11:58:50;-13.54;73.69
72762;SHT30;60886;55.034;73.150;2023-02-01T12:02:33;-13.59;73.73
72762;SHT30;60886;55.034;73.150;2023-02-01T12:05:57;-13.58;73.87
72762;SHT30;60886;55.034;73.150;2023-02-01T12:09:34;-13.59;73.77
72762;SHT30;60886;55.034;73.150;2023-02-01T12:12:47;-13.65;73.64
72762;SHT30;60886;55.034;73.150;2023-02-01T12:16:09;-13.72;73.97
72762;SHT30;60886;55.034;73.150;2023-02-01T12:19:42;-13.72;74.15
72762;SHT30;60886;55.034;73.150;2023-02-01T12:26:24;-13.73;74.17
72762;SHT30;60886;55.034;73.150;2023-02-01T12:36:21;-13.87;72.55
72762;SHT30;60886;55.034;73.150;2023-02-01T12:39:46;-13.97;72.44
72762;SHT30;60886;55.034;73.150;2023-02-01T12:46:43;-14.13;72.88
72762;SHT30;60886;55.034;73.150;2023-02-01T12:56:49;-14.28;72.98
72762;SHT30;60886;55.034;73.150;2023-02-01T12:59:56;-14.31;72.82
72762;SHT30;60886;55.034;73.150;2023-02-01T13:06:31;-14.37;73.12
72762;SHT30;60886;55.034;73.150;2023-02-01T13:10:12;-14.44;72.97
72762;SHT30;60886;55.034;73.150;2023-02-01T13:13:22;-14.42;73.26
72762;SHT30;60886;55.034;73.150;2023-02-01T13:16:30;-14.44;73.33
72762;SHT30;60886;55.034;73.150;2023-02-01T13:19:43;-14.47;73.02
72762;SHT30;60886;55.034;73.150;2023-02-01T13:22:51;-14.57;73.02
72762;SHT30;60886;55.034;73.150;2023-02-01T13:25:56;-14.62;73.61
72762;SHT30;60886;55.034;73.150;2023-02-01T13:29:04;-14.60;73.69
72762;SHT30;60886;55.034;73.150;2023-02-01T13:42:20;-14.69;73.31
72762;SHT30;60886;55.034;73.150;2023-02-01T13:46:14;-14.76;73.37
72762;SHT30;60886;55.034;73.150;2023-02-01T13:49:29;-14.82;74.00
72762;SHT30;60886;55.034;73.150;2023-02-01T13:52:55;-14.86;73.73
72762;SHT30;60886;55.034;73.150;2023-02-01T13:56:50;-14.92;73.66
72762;SHT30;60886;55.034;73.150;2023-02-01T14:00:35;-14.95;74.04
72762;SHT30;60886;55.034;73.150;2023-02-01T14:04:00;-14.91;74.16
72762;SHT30;60886;55.034;73.150;2023-02-01T14:07:21;-14.96;73.89
72762;SHT30;60886;55.034;73.150;2023-02-01T14:10:48;-14.93;74.00
72762;SHT30;60886;55.034;73.150;2023-02-01T14:13:53;-14.96;73.64
72762;SHT30;60886;55.034;73.150;2023-02-01T14:20:43;-15.05;73.75
72762;SHT30;60886;55.034;73.150;2023-02-01T14:27:01;-15.07;74.63
72762;SHT30;60886;55.034;73.150;2023-02-01T14:30:16;-15.12;74.45
72762;SHT30;60886;55.034;73.150;2023-02-01T14:33:24;-15.13;74.62
72762;SHT30;60886;55.034;73.150;2023-02-01T14:36:40;-15.13;74.34
72762;SHT30;60886;55.034;73.150;2023-02-01T14:42:52;-15.27;74.55
72762;SHT30;60886;55.034;73.150;2023-02-01T14:46:04;-15.24;74.36
72762;SHT30;60886;55.034;73.150;2023-02-01T14:49:06;-15.31;74.24
72762;SHT30;60886;55.034;73.150;2023-02-01T14:52:14;-15.31;74.26
72762;SHT30;60886;55.034;73.150;2023-02-01T14:55:27;-15.30;74.27
72762;SHT30;60886;55.034;73.150;2023-02-01T15:02:37;-15.36;74.45
72762;SHT30;60886;55.034;73.150;2023-02-01T15:06:40;-15.27;74.36
72762;SHT30;60886;55.034;73.150;2023-02-01T15:09:48;-15.27;74.24
72762;SHT30;60886;55.034;73.150;2023-02-01T15:13:22;-15.28;74.56
72762;SHT30;60886;55.034;73.150;2023-02-01T15:16:29;-15.27;74.63
72762;SHT30;60886;55.034;73.150;2023-02-01T15:19:30;-15.22;74.80
72762;SHT30;60886;55.034;73.150;2023-02-01T15:22:37;-15.17;74.85
72762;SHT30;60886;55.034;73.150;2023-02-01T15:25:46;-15.17;74.61
72762;SHT30;60886;55.034;73.150;2023-02-01T15:29:03;-15.16;74.61
72762;SHT30;60886;55.034;73.150;2023-02-01T15:32:35;-15.15;74.59
72762;SHT30;60886;55.034;73.150;2023-02-01T15:35:45;-15.22;74.54
72762;SHT30;60886;55.034;73.150;2023-02-01T15:42:57;-15.24;74.97
72762;SHT30;60886;55.034;73.150;2023-02-01T15:46:03;-15.19;74.93
72762;SHT30;60886;55.034;73.150;2023-02-01T15:49:35;-15.13;74.65
72762;SHT30;60886;55.034;73.150;2023-02-01T15:52:41;-15.16;74.58
72762;SHT30;60886;55.034;73.150;2023-02-01T15:55:55;-15.15;74.57
72762;SHT30;60886;55.034;73.150;2023-02-01T15:59:00;-15.19;74.65
72762;SHT30;60886;55.034;73.150;2023-02-01T16:02:03;-15.20;74.44
72762;SHT30;60886;55.034;73.150;2023-02-01T16:05:33;-15.17;74.56
72762;SHT30;60886;55.034;73.150;2023-02-01T16:08:53;-15.19;74.46
72762;SHT30;60886;55.034;73.150;2023-02-01T16:11:57;-15.15;74.38
72762;SHT30;60886;55.034;73.150;2023-02-01T16:15:00;-15.07;74.44
72762;SHT30;60886;55.034;73.150;2023-02-01T16:18:12;-15.05;74.29
72762;SHT30;60886;55.034;73.150;2023-02-01T16:21:20;-15.03;74.12
72762;SHT30;60886;55.034;73.150;2023-02-01T16:24:24;-14.99;74.43
72762;SHT30;60886;55.034;73.150;2023-02-01T16:27:26;-14.88;74.21
72762;SHT30;60886;55.034;73.150;2023-02-01T16:30:28;-14.81;74.07
72762;SHT30;60886;55.034;73.150;2023-02-01T16:33:40;-14.78;73.94
72762;SHT30;60886;55.034;73.150;2023-02-01T16:36:43;-14.76;74.19
72762;SHT30;60886;55.034;73.150;2023-02-01T16:39:44;-14.71;73.71
72762;SHT30;60886;55.034;73.150;2023-02-01T16:42:49;-14.69;73.59
72762;SHT30;60886;55.034;73.150;2023-02-01T16:45:53;-14.65;73.49
72762;SHT30;60886;55.034;73.150;2023-02-01T16:48:58;-14.75;72.93
72762;SHT30;60886;55.034;73.150;2023-02-01T16:52:00;-14.81;73.22
72762;SHT30;60886;55.034;73.150;2023-02-01T16:55:12;-14.82;72.92
72762;SHT30;60886;55.034;73.150;2023-02-01T16:58:19;-14.88;72.56
72762;SHT30;60886;55.034;73.150;2023-02-01T17:01:21;-14.91;72.79
72762;SHT30;60886;55.034;73.150;2023-02-01T17:04:23;-14.85;72.85
72762;SHT30;60886;55.034;73.150;2023-02-01T17:07:31;-14.92;72.77
72762;SHT30;60886;55.034;73.150;2023-02-01T17:10:44;-14.95;72.56
72762;SHT30;60886;55.034;73.150;2023-02-01T17:14:24;-14.99;72.59
72762;SHT30;60886;55.034;73.150;2023-02-01T17:17:44;-14.99;72.85
72762;SHT30;60886;55.034;73.150;2023-02-01T17:20:48;-15.00;73.00
72762;SHT30;60886;55.034;73.150;2023-02-01T17:23:52;-15.00;72.81
72762;SHT30;60886;55.034;73.150;2023-02-01T17:26:59;-14.97;73.05
72762;SHT30;60886;55.034;73.150;2023-02-01T17:30:02;-14.95;73.02
72762;SHT30;60886;55.034;73.150;2023-02-01T17:36:20;-14.99;72.84
72762;SHT30;60886;55.034;73.150;2023-02-01T17:39:22;-14.93;73.49
72762;SHT30;60886;55.034;73.150;2023-02-01T17:42:42;-14.88;73.42
72762;SHT30;60886;55.034;73.150;2023-02-01T17:45:51;-14.85;73.13
72762;SHT30;60886;55.034;73.150;2023-02-01T17:48:55;-14.93;73.10
72762;SHT30;60886;55.034;73.150;2023-02-01T17:52:14;-14.99;73.53
72762;SHT30;60886;55.034;73.150;2023-02-01T17:55:23;-14.96;73.81
72762;SHT30;60886;55.034;73.150;2023-02-01T17:58:29;-14.97;73.57
72762;SHT30;60886;55.034;73.150;2023-02-01T18:01:35;-14.97;73.78
72762;SHT30;60886;55.034;73.150;2023-02-01T18:04:40;-14.96;73.93
72762;SHT30;60886;55.034;73.150;2023-02-01T18:07:43;-14.95;73.79
72762;SHT30;60886;55.034;73.150;2023-02-01T18:10:47;-14.91;74.14
72762;SHT30;60886;55.034;73.150;2023-02-01T18:13:53;-14.89;74.00
72762;SHT30;60886;55.034;73.150;2023-02-01T18:16:55;-14.96;73.91
72762;SHT30;60886;55.034;73.150;2023-02-01T18:19:57;-14.96;74.12
72762;SHT30;60886;55.034;73.150;2023-02-01T18:22:59;-14.97;74.36
72762;SHT30;60886;55.034;73.150;2023-02-01T18:26:01;-14.95;74.56
72762;SHT30;60886;55.034;73.150;2023-02-01T18:29:04;-14.88;74.61
72762;SHT30;60886;55.034;73.150;2023-02-01T18:32:14;-14.89;74.24
72762;SHT30;60886;55.034;73.150;2023-02-01T18:35:17;-15.00;74.25
72762;SHT30;60886;55.034;73.150;2023-02-01T18:38:46;-14.92;74.80
72762;SHT30;60886;55.034;73.150;2023-02-01T18:42:04;-14.91;74.59
72762;SHT30;60886;55.034;73.150;2023-02-01T18:45:35;-14.96;74.55
72762;SHT30;60886;55.034;73.150;2023-02-01T18:49:03;-15.02;74.31
72762;SHT30;60886;55.034;73.150;2023-02-01T18:52:33;-15.06;74.42
72762;SHT30;60886;55.034;73.150;2023-02-01T18:55:43;-15.07;74.65
72762;SHT30;60886;55.034;73.150;2023-02-01T18:58:49;-15.07;74.48
72762;SHT30;60886;55.034;73.150;2023-02-01T19:01:56;-15.12;74.68
72762;SHT30;60886;55.034;73.150;2023-02-01T19:05:09;-15.09;74.56
72762;SHT30;60886;55.034;73.150;2023-02-01T19:08:18;-15.09;74.53
72762;SHT30;60886;55.034;73.150;2023-02-01T19:11:45;-15.16;74.16
72762;SHT30;60886;55.034;73.150;2023-02-01T19:15:23;-15.13;74.54
72762;SHT30;60886;55.034;73.150;2023-02-01T19:18:54;-15.07;74.57
72762;SHT30;60886;55.034;73.150;2023-02-01T19:22:25;-15.15;74.47
72762;SHT30;60886;55.034;73.150;2023-02-01T19:29:31;-15.34;74.40
72762;SHT30;60886;55.034;73.150;2023-02-01T19:32:34;-15.38;74.60
72762;SHT30;60886;55.034;73.150;2023-02-01T19:36:03;-15.36;74.75
72762;SHT30;60886;55.034;73.150;2023-02-01T19:39:06;-15.37;74.23
72762;SHT30;60886;55.034;73.150;2023-02-01T19:42:57;-15.38;74.37
72762;SHT30;60886;55.034;73.150;2023-02-01T19:46:24;-15.41;74.41
72762;SHT30;60886;55.034;73.150;2023-02-01T19:57:23;-15.60;75.27
72762;SHT30;60886;55.034;73.150;2023-02-01T20:01:42;-15.44;75.40
72762;SHT30;60886;55.034;73.150;2023-02-01T20:05:13;-15.40;74.64
72762;SHT30;60886;55.034;73.150;2023-02-01T20:08:40;-15.46;74.94
72762;SHT30;60886;55.034;73.150;2023-02-01T20:12:01;-15.46;75.13
72762;SHT30;60886;55.034;73.150;2023-02-01T20:18:53;-15.27;74.60
72762;SHT30;60886;55.034;73.150;2023-02-01T20:21:54;-15.30;74.76
72762;SHT30;60886;55.034;73.150;2023-02-01T20:25:08;-15.30;74.40
72762;SHT30;60886;55.034;73.150;2023-02-01T20:28:24;-15.38;74.33
72762;SHT30;60886;55.034;73.150;2023-02-01T20:31:41;-15.37;74.67
72762;SHT30;60886;55.034;73.150;2023-02-01T20:35:40;-15.36;74.31
72762;SHT30;60886;55.034;73.150;2023-02-01T20:39:05;-15.50;74.37
72762;SHT30;60886;55.034;73.150;2023-02-01T20:46:09;-15.38;73.88
72762;SHT30;60886;55.034;73.150;2023-02-01T20:49:18;-15.44;73.78
72762;SHT30;60886;55.034;73.150;2023-02-01T20:52:34;-15.37;73.78
72762;SHT30;60886;55.034;73.150;2023-02-01T20:55:45;-15.40;73.51
72762;SHT30;60886;55.034;73.150;2023-02-01T20:59:01;-15.47;73.46
72762;SHT30;60886;55.034;73.150;2023-02-01T21:02:35;-15.41;73.70
72762;SHT30;60886;55.034;73.150;2023-02-01T21:05:49;-15.43;73.30
72762;SHT30;60886;55.034;73.150;2023-02-01T21:09:00;-15.51;73.27
72762;SHT30;60886;55.034;73.150;2023-02-01T21:12:15;-15.46;73.67
72762;SHT30;60886;55.034;73.150;2023-02-01T21:15:17;-15.44;73.80
72762;SHT30;60886;55.034;73.150;2023-02-01T21:18:21;-15.54;73.40
72762;SHT30;60886;55.034;73.150;2023-02-01T21:21:32;-15.53;73.62
72762;SHT30;60886;55.034;73.150;2023-02-01T21:24:53;-15.55;73.58
72762;SHT30;60886;55.034;73.150;2023-02-01T21:28:04;-15.68;73.59
72762;SHT30;60886;55.034;73.150;2023-02-01T21:31:06;-15.61;74.47
72762;SHT30;60886;55.034;73.150;2023-02-01T21:34:18;-15.61;74.15
72762;SHT30;60886;55.034;73.150;2023-02-01T21:41:19;-15.48;74.46
72762;SHT30;60886;55.034;73.150;2023-02-01T21:44:55;-15.47;73.98
72762;SHT30;60886;55.034;73.150;2023-02-01T21:48:28;-15.47;74.12